createdAt,value
2018-06-17T00:00:45.579Z,18.07
2018-06-17T00:01:44.834Z,17.99
2018-06-17T00:02:44.919Z,17.99
2018-06-17T00:03:45.010Z,17.97
2018-06-17T00:04:45.101Z,18.00
2018-06-17T00:05:45.240Z,18.04
2018-06-17T00:06:45.336Z,18.07
2018-06-17T00:07:45.436Z,17.91
2018-06-17T00:08:45.521Z,18.06
2018-06-17T00:09:45.611Z,18.09
2018-06-17T00:10:45.697Z,18.10
2018-06-17T00:11:45.922Z,18.13
2018-06-17T00:12:45.905Z,18.13
2018-06-17T00:13:45.988Z,18.21
2018-06-17T00:14:46.087Z,18.18
2018-06-17T00:15:46.176Z,18.24
2018-06-17T00:16:46.324Z,18.17
2018-06-17T00:17:46.366Z,18.24
2018-06-17T00:18:46.461Z,18.22
2018-06-17T00:19:46.553Z,18.24
2018-06-17T00:20:46.643Z,18.21
2018-06-17T00:21:46.774Z,18.19
2018-06-17T00:22:46.883Z,18.22
2018-06-17T00:23:46.994Z,18.22
2018-06-17T00:24:47.129Z,18.22
2018-06-17T00:25:47.236Z,18.22
2018-06-17T00:26:47.324Z,18.25
2018-06-17T00:27:47.422Z,18.19
2018-06-17T00:28:47.514Z,18.18
2018-06-17T00:29:47.596Z,18.13
2018-06-17T00:30:47.700Z,18.07
2018-06-17T00:31:47.845Z,18.09
2018-06-17T00:32:47.942Z,18.06
2018-06-17T00:33:48.026Z,17.78
2018-06-17T00:34:48.133Z,17.63
2018-06-17T00:35:48.228Z,17.67
2018-06-17T00:36:48.322Z,17.62
2018-06-17T00:37:48.417Z,17.62
2018-06-17T00:38:48.510Z,17.73
2018-06-17T00:39:48.618Z,17.71
2018-06-17T00:40:48.770Z,17.71
2018-06-17T00:41:48.880Z,17.76
2018-06-17T00:42:48.975Z,17.76
2018-06-17T00:43:49.100Z,17.76
2018-06-17T00:44:49.211Z,17.73
2018-06-17T00:45:49.346Z,17.74
2018-06-17T00:46:49.474Z,17.69
2018-06-17T00:47:49.571Z,17.62
2018-06-17T00:48:49.672Z,17.55
2018-06-17T00:49:49.770Z,17.53
2018-06-17T00:50:49.854Z,17.62
2018-06-17T00:51:49.951Z,17.54
2018-06-17T00:52:50.048Z,17.57
2018-06-17T00:53:50.150Z,17.55
2018-06-17T00:54:50.274Z,17.62
2018-06-17T00:55:50.378Z,17.62
2018-06-17T00:56:50.474Z,17.51
2018-06-17T00:57:50.578Z,17.50
2018-06-17T00:58:50.679Z,17.51
2018-06-17T00:59:50.765Z,17.53
2018-06-17T01:00:50.886Z,17.57
2018-06-17T01:01:50.979Z,17.50
2018-06-17T01:02:51.074Z,17.51
2018-06-17T01:03:51.173Z,17.55
2018-06-17T01:04:51.267Z,17.54
2018-06-17T01:05:51.370Z,17.54
2018-06-17T01:06:51.452Z,17.59
2018-06-17T01:07:51.544Z,17.64
2018-06-17T01:08:51.638Z,17.53
2018-06-17T01:09:51.764Z,17.53
2018-06-17T01:10:51.866Z,17.55
2018-06-17T01:11:51.962Z,17.47
2018-06-17T01:12:52.065Z,17.46
2018-06-17T01:13:52.161Z,17.46
2018-06-17T01:14:52.264Z,17.50
2018-06-17T01:15:52.375Z,17.43
2018-06-17T01:16:52.464Z,17.41
2018-06-17T01:17:52.557Z,17.41
2018-06-17T01:18:52.664Z,17.38
2018-06-17T01:19:52.749Z,17.32
2018-06-17T01:20:52.858Z,17.32
2018-06-17T01:21:52.953Z,17.36
2018-06-17T01:22:53.050Z,17.36
2018-06-17T01:23:53.146Z,17.25
2018-06-17T01:24:53.244Z,17.26
2018-06-17T01:25:53.329Z,17.22
2018-06-17T01:26:53.422Z,17.29
2018-06-17T01:27:53.526Z,17.35
2018-06-17T01:28:53.632Z,17.26
2018-06-17T01:29:53.730Z,17.28
2018-06-17T01:30:53.827Z,17.07
2018-06-17T01:31:53.926Z,17.13
2018-06-17T01:32:54.053Z,16.75
2018-06-17T01:33:54.169Z,16.56
2018-06-17T01:34:54.284Z,16.44
2018-06-17T01:35:54.391Z,16.40
2018-06-17T01:36:54.486Z,16.35
2018-06-17T01:37:54.588Z,16.30
2018-06-17T01:38:54.686Z,16.30
2018-06-17T01:39:54.830Z,16.40
2018-06-17T01:40:54.927Z,16.55
2018-06-17T01:41:55.025Z,16.50
2018-06-17T01:42:55.121Z,16.58
2018-06-17T01:43:55.233Z,16.60
2018-06-17T01:44:55.325Z,16.68
2018-06-17T01:45:55.431Z,16.71
2018-06-17T01:46:55.523Z,16.77
2018-06-17T01:47:55.620Z,16.71
2018-06-17T01:48:55.716Z,16.71
2018-06-17T01:49:55.816Z,16.81
2018-06-17T01:50:55.912Z,16.78
2018-06-17T01:51:56.009Z,16.83
2018-06-17T01:52:56.107Z,16.89
2018-06-17T01:53:56.203Z,16.83
2018-06-17T01:54:56.301Z,16.98
2018-06-17T01:55:56.399Z,16.86
2018-06-17T01:56:56.495Z,16.60
2018-06-17T01:57:56.594Z,16.48
2018-06-17T01:58:56.692Z,16.45
2018-06-17T01:59:56.789Z,16.48
2018-06-17T02:00:56.878Z,16.55
2018-06-17T02:01:56.981Z,16.58
2018-06-17T02:02:57.078Z,16.55
2018-06-17T02:03:57.176Z,16.56
2018-06-17T02:04:57.275Z,16.58
2018-06-17T02:05:57.372Z,16.68
2018-06-17T02:06:57.470Z,16.73
2018-06-17T02:07:57.566Z,16.67
2018-06-17T02:08:57.660Z,16.70
2018-06-17T02:09:57.761Z,16.81
2018-06-17T02:10:57.861Z,16.86
2018-06-17T02:11:57.957Z,16.86
2018-06-17T02:12:58.054Z,16.81
2018-06-17T02:13:58.163Z,16.88
2018-06-17T02:14:58.261Z,16.83
2018-06-17T02:15:58.358Z,16.81
2018-06-17T02:16:58.458Z,16.83
2018-06-17T02:17:58.555Z,16.85
2018-06-17T02:18:58.652Z,16.88
2018-06-17T02:19:58.750Z,16.88
2018-06-17T02:20:58.847Z,16.80
2018-06-17T02:21:58.947Z,16.89
2018-06-17T02:22:59.048Z,16.89
2018-06-17T02:23:59.143Z,16.85
2018-06-17T02:24:59.238Z,16.86
2018-06-17T02:25:59.339Z,16.83
2018-06-17T02:26:59.435Z,16.45
2018-06-17T02:27:59.535Z,16.20
2018-06-17T02:28:59.633Z,16.03
2018-06-17T02:29:59.731Z,15.92
2018-06-17T02:30:59.831Z,15.84
2018-06-17T02:31:59.933Z,15.79
2018-06-17T02:33:00.581Z,15.66
2018-06-17T02:34:00.179Z,15.82
2018-06-17T02:35:00.298Z,15.86
2018-06-17T02:36:00.397Z,15.93
2018-06-17T02:37:00.491Z,16.03
2018-06-17T02:38:00.592Z,16.07
2018-06-17T02:39:00.688Z,16.15
2018-06-17T02:40:00.785Z,16.23
2018-06-17T02:41:00.882Z,16.33
2018-06-17T02:42:00.975Z,16.30
2018-06-17T02:43:01.075Z,16.37
2018-06-17T02:44:01.173Z,16.44
2018-06-17T02:45:01.271Z,16.45
2018-06-17T02:46:01.366Z,16.48
2018-06-17T02:47:01.465Z,16.45
2018-06-17T02:48:01.563Z,16.55
2018-06-17T02:49:01.660Z,16.59
2018-06-17T02:50:01.755Z,16.62
2018-06-17T02:51:01.853Z,16.70
2018-06-17T02:52:01.952Z,16.78
2018-06-17T02:53:02.051Z,16.85
2018-06-17T02:54:02.148Z,16.80
2018-06-17T02:55:02.250Z,16.88
2018-06-17T02:56:02.343Z,16.89
2018-06-17T02:57:02.442Z,16.83
2018-06-17T02:58:02.540Z,16.85
2018-06-17T02:59:02.641Z,16.83
2018-06-17T03:00:02.741Z,16.85
2018-06-17T03:01:02.845Z,16.92
2018-06-17T03:02:02.945Z,17.00
2018-06-17T03:03:03.047Z,16.90
2018-06-17T03:04:03.146Z,17.06
2018-06-17T03:05:03.241Z,17.03
2018-06-17T03:06:03.341Z,17.04
2018-06-17T03:07:03.438Z,17.15
2018-06-17T03:08:03.544Z,17.17
2018-06-17T03:09:03.645Z,17.20
2018-06-17T03:10:03.744Z,17.10
2018-06-17T03:11:03.840Z,17.17
2018-06-17T03:12:03.941Z,17.18
2018-06-17T03:13:04.033Z,17.17
2018-06-17T03:14:04.133Z,17.15
2018-06-17T03:15:04.233Z,17.14
2018-06-17T03:16:04.330Z,17.17
2018-06-17T03:17:04.425Z,17.07
2018-06-17T03:18:04.526Z,17.08
2018-06-17T03:19:04.623Z,17.10
2018-06-17T03:20:04.737Z,17.07
2018-06-17T03:21:04.818Z,17.25
2018-06-17T03:22:04.931Z,17.25
2018-06-17T03:23:05.030Z,17.23
2018-06-17T03:24:05.127Z,17.28
2018-06-17T03:25:05.230Z,17.22
2018-06-17T03:26:05.323Z,17.26
2018-06-17T03:27:05.422Z,17.35
2018-06-17T03:28:05.517Z,17.36
2018-06-17T03:29:05.617Z,17.25
2018-06-17T03:30:05.714Z,17.28
2018-06-17T03:31:05.811Z,17.30
2018-06-17T03:32:05.914Z,17.32
2018-06-17T03:33:06.009Z,17.32
2018-06-17T03:34:06.107Z,17.43
2018-06-17T03:35:06.205Z,17.38
2018-06-17T03:36:06.306Z,17.35
2018-06-17T03:37:06.404Z,17.35
2018-06-17T03:38:06.506Z,17.41
2018-06-17T03:39:06.603Z,17.30
2018-06-17T03:40:06.703Z,17.13
2018-06-17T03:41:06.802Z,17.06
2018-06-17T03:42:06.899Z,16.77
2018-06-17T03:43:07.009Z,16.77
2018-06-17T03:44:07.108Z,16.75
2018-06-17T03:45:07.208Z,16.77
2018-06-17T03:46:07.307Z,16.73
2018-06-17T03:47:07.404Z,16.83
2018-06-17T03:48:07.501Z,16.93
2018-06-17T03:49:07.598Z,16.96
2018-06-17T03:50:07.699Z,17.06
2018-06-17T03:51:07.794Z,17.06
2018-06-17T03:52:07.895Z,17.00
2018-06-17T03:53:07.994Z,17.14
2018-06-17T03:54:08.094Z,17.10
2018-06-17T03:55:08.192Z,17.15
2018-06-17T03:56:08.294Z,17.25
2018-06-17T03:57:08.392Z,17.28
2018-06-17T03:58:08.488Z,17.44
2018-06-17T03:59:08.583Z,17.43
2018-06-17T04:00:08.682Z,17.48
2018-06-17T04:01:08.784Z,17.40
2018-06-17T04:02:08.882Z,17.51
2018-06-17T04:03:08.981Z,17.47
2018-06-17T04:04:09.138Z,17.44
2018-06-17T04:05:09.180Z,17.53
2018-06-17T04:06:09.277Z,17.47
2018-06-17T04:07:09.374Z,17.57
2018-06-17T04:08:09.470Z,17.50
2018-06-17T04:09:09.567Z,17.48
2018-06-17T04:10:09.666Z,17.50
2018-06-17T04:11:09.767Z,17.55
2018-06-17T04:12:09.859Z,17.54
2018-06-17T04:13:09.958Z,17.63
2018-06-17T04:14:10.058Z,17.63
2018-06-17T04:15:10.154Z,17.62
2018-06-17T04:16:10.250Z,17.70
2018-06-17T04:17:10.370Z,17.67
2018-06-17T04:18:10.469Z,17.81
2018-06-17T04:19:10.568Z,17.82
2018-06-17T04:20:10.668Z,17.84
2018-06-17T04:21:10.769Z,17.79
2018-06-17T04:22:10.866Z,17.71
2018-06-17T04:23:10.964Z,17.73
2018-06-17T04:24:11.074Z,17.92
2018-06-17T04:25:11.169Z,17.79
2018-06-17T04:26:11.269Z,17.88
2018-06-17T04:27:11.393Z,17.79
2018-06-17T04:28:11.458Z,17.97
2018-06-17T04:29:11.559Z,18.04
2018-06-17T04:30:11.660Z,18.04
2018-06-17T04:31:11.757Z,18.06
2018-06-17T04:32:11.856Z,18.18
2018-06-17T04:33:11.952Z,18.15
2018-06-17T04:34:12.051Z,18.24
2018-06-17T04:35:12.151Z,18.29
2018-06-17T04:36:12.249Z,18.36
2018-06-17T04:37:12.352Z,18.40
2018-06-17T04:38:12.445Z,18.42
2018-06-17T04:39:12.543Z,18.42
2018-06-17T04:40:12.642Z,18.42
2018-06-17T04:41:12.741Z,18.50
2018-06-17T04:42:12.840Z,18.57
2018-06-17T04:43:12.941Z,18.58
2018-06-17T04:44:13.040Z,18.55
2018-06-17T04:45:13.138Z,18.55
2018-06-17T04:46:13.233Z,18.62
2018-06-17T04:47:13.332Z,18.67
2018-06-17T04:48:13.431Z,18.61
2018-06-17T04:49:13.531Z,18.65
2018-06-17T04:50:13.632Z,18.70
2018-06-17T04:51:13.731Z,18.70
2018-06-17T04:52:13.831Z,18.64
2018-06-17T04:53:13.932Z,18.64
2018-06-17T04:54:14.031Z,18.61
2018-06-17T04:55:14.130Z,18.70
2018-06-17T04:56:14.235Z,18.73
2018-06-17T04:57:14.334Z,18.68
2018-06-17T04:58:14.441Z,18.70
2018-06-17T04:59:14.541Z,18.65
2018-06-17T05:00:14.642Z,18.77
2018-06-17T05:01:14.731Z,18.83
2018-06-17T05:02:14.826Z,18.84
2018-06-17T05:03:14.916Z,18.82
2018-06-17T05:04:15.014Z,18.84
2018-06-17T05:05:15.146Z,18.90
2018-06-17T05:06:15.240Z,18.92
2018-06-17T05:07:15.326Z,18.94
2018-06-17T05:08:15.521Z,18.97
2018-06-17T05:09:15.533Z,18.97
2018-06-17T05:10:15.629Z,18.97
2018-06-17T05:11:15.728Z,19.08
2018-06-17T05:12:15.820Z,19.08
2018-06-17T05:13:15.931Z,19.08
2018-06-17T05:14:16.024Z,19.18
2018-06-17T05:15:16.128Z,19.20
2018-06-17T05:16:16.225Z,19.24
2018-06-17T05:17:16.321Z,19.36
2018-06-17T05:18:16.508Z,19.33
2018-06-17T05:19:16.503Z,19.31
2018-06-17T05:20:16.600Z,19.35
2018-06-17T05:21:16.696Z,19.39
2018-06-17T05:22:16.831Z,19.54
2018-06-17T05:23:16.934Z,19.57
2018-06-17T05:24:17.024Z,19.66
2018-06-17T05:25:17.124Z,19.66
2018-06-17T05:26:17.237Z,19.76
2018-06-17T05:27:17.345Z,19.86
2018-06-17T05:28:17.463Z,19.86
2018-06-17T05:29:17.548Z,19.93
2018-06-17T05:30:17.636Z,19.97
2018-06-17T05:31:18.622Z,19.97
2018-06-17T05:32:17.847Z,20.09
2018-06-17T05:33:17.931Z,20.05
2018-06-17T05:34:18.028Z,19.94
2018-06-17T05:35:18.129Z,20.10
2018-06-17T05:36:18.256Z,20.10
2018-06-17T05:37:18.352Z,20.12
2018-06-17T05:38:18.451Z,20.09
2018-06-17T05:39:18.551Z,20.09
2018-06-17T05:40:18.648Z,20.16
2018-06-17T05:41:18.742Z,20.20
2018-06-17T05:42:18.847Z,20.24
2018-06-17T05:43:18.939Z,20.21
2018-06-17T05:44:19.058Z,20.27
2018-06-17T05:45:19.171Z,20.33
2018-06-17T05:46:19.268Z,20.39
2018-06-17T05:47:19.386Z,20.35
2018-06-17T05:48:19.884Z,20.47
2018-06-17T05:49:19.636Z,20.46
2018-06-17T05:50:19.767Z,20.56
2018-06-17T05:51:19.903Z,20.62
2018-06-17T05:52:20.006Z,20.68
2018-06-17T05:53:20.092Z,20.81
2018-06-17T05:54:20.493Z,20.76
2018-06-17T05:55:20.360Z,20.89
2018-06-17T05:56:20.509Z,20.93
2018-06-17T05:57:20.517Z,20.98
2018-06-17T05:58:20.776Z,21.06
2018-06-17T05:59:20.813Z,21.11
2018-06-17T06:00:20.969Z,21.13
2018-06-17T06:01:20.964Z,21.24
2018-06-17T06:02:21.097Z,21.27
2018-06-17T06:03:21.209Z,21.24
2018-06-17T06:04:21.471Z,21.30
2018-06-17T06:05:21.588Z,21.30
2018-06-17T06:06:21.598Z,21.27
2018-06-17T06:07:21.702Z,21.32
2018-06-17T06:08:21.804Z,21.30
2018-06-17T06:09:21.923Z,21.38
2018-06-17T06:10:22.032Z,21.48
2018-06-17T06:11:22.117Z,21.45
2018-06-17T06:12:22.234Z,21.53
2018-06-17T06:13:22.339Z,21.60
2018-06-17T06:14:22.445Z,21.67
2018-06-17T06:15:22.545Z,21.72
2018-06-17T06:16:22.654Z,21.72
2018-06-17T06:17:22.758Z,21.64
2018-06-17T06:18:22.854Z,21.67
2018-06-17T06:19:22.949Z,21.66
2018-06-17T06:20:23.043Z,21.66
2018-06-17T06:21:23.143Z,21.69
2018-06-17T06:22:23.249Z,21.76
2018-06-17T06:23:23.349Z,21.75
2018-06-17T06:24:23.441Z,21.79
2018-06-17T06:25:23.524Z,21.88
2018-06-17T06:26:23.652Z,21.76
2018-06-17T06:27:23.773Z,21.90
2018-06-17T06:28:23.873Z,21.85
2018-06-17T06:29:23.983Z,21.79
2018-06-17T06:30:24.089Z,21.95
2018-06-17T06:31:24.189Z,21.88
2018-06-17T06:32:24.303Z,21.99
2018-06-17T06:33:24.426Z,22.01
2018-06-17T06:34:24.571Z,22.07
2018-06-17T06:35:24.681Z,21.75
2018-06-17T06:36:24.790Z,21.67
2018-06-17T06:37:24.916Z,21.75
2018-06-17T06:38:25.016Z,21.88
2018-06-17T06:39:25.160Z,21.78
2018-06-17T06:40:25.189Z,21.88
2018-06-17T06:41:25.293Z,21.99
2018-06-17T06:42:25.408Z,22.01
2018-06-17T06:43:25.511Z,21.64
2018-06-17T06:44:25.626Z,21.66
2018-06-17T06:45:25.725Z,21.75
2018-06-17T06:46:25.840Z,21.60
2018-06-17T06:47:25.941Z,21.64
2018-06-17T06:48:26.048Z,21.88
2018-06-17T06:49:26.148Z,22.01
2018-06-17T06:50:26.250Z,22.01
2018-06-17T06:51:26.349Z,22.02
2018-06-17T06:52:26.451Z,22.22
2018-06-17T06:53:26.556Z,22.22
2018-06-17T06:54:26.651Z,22.20
2018-06-17T06:55:26.752Z,22.31
2018-06-17T06:56:26.853Z,22.32
2018-06-17T06:57:27.001Z,22.38
2018-06-17T06:58:27.074Z,22.39
2018-06-17T06:59:27.178Z,22.53
2018-06-17T07:00:27.270Z,22.56
2018-06-17T07:01:27.376Z,22.68
2018-06-17T07:02:27.621Z,22.57
2018-06-17T07:03:27.539Z,22.56
2018-06-17T07:04:27.636Z,22.62
2018-06-17T07:05:27.734Z,22.57
2018-06-17T07:06:27.830Z,22.65
2018-06-17T07:07:27.931Z,22.67
2018-06-17T07:08:28.086Z,22.80
2018-06-17T07:09:28.184Z,22.90
2018-06-17T07:10:28.297Z,22.78
2018-06-17T07:11:28.405Z,22.97
2018-06-17T07:12:28.509Z,23.08
2018-06-17T07:13:28.611Z,23.08
2018-06-17T07:14:28.714Z,23.17
2018-06-17T07:15:28.819Z,23.32
2018-06-17T07:16:28.938Z,23.40
2018-06-17T07:17:29.041Z,23.45
2018-06-17T07:18:29.145Z,23.47
2018-06-17T07:19:29.257Z,23.52
2018-06-17T07:20:29.358Z,23.45
2018-06-17T07:21:29.489Z,23.17
2018-06-17T07:22:29.589Z,23.15
2018-06-17T07:23:29.692Z,23.17
2018-06-17T07:24:29.793Z,23.27
2018-06-17T07:25:29.898Z,23.29
2018-06-17T07:26:30.017Z,23.22
2018-06-17T07:27:30.131Z,23.22
2018-06-17T07:28:30.231Z,23.11
2018-06-17T07:29:30.334Z,23.09
2018-06-17T07:30:30.437Z,23.11
2018-06-17T07:31:30.538Z,23.38
2018-06-17T07:32:30.638Z,23.46
2018-06-17T07:33:30.741Z,23.47
2018-06-17T07:34:30.864Z,23.64
2018-06-17T07:35:30.961Z,23.65
2018-06-17T07:36:31.069Z,23.72
2018-06-17T07:37:31.170Z,23.87
2018-06-17T07:38:31.286Z,23.77
2018-06-17T07:39:31.389Z,23.76
2018-06-17T07:40:31.505Z,23.70
2018-06-17T07:41:31.606Z,23.77
2018-06-17T07:42:31.721Z,23.85
2018-06-17T07:43:31.830Z,24.00
2018-06-17T07:44:31.933Z,24.07
2018-06-17T07:45:32.035Z,24.05
2018-06-17T07:46:32.139Z,24.10
2018-06-17T07:47:32.242Z,24.12
2018-06-17T07:48:32.344Z,24.14
2018-06-17T07:49:32.450Z,24.07
2018-06-17T07:50:32.555Z,24.04
2018-06-17T07:51:32.655Z,23.85
2018-06-17T07:52:32.756Z,23.71
2018-06-17T07:53:32.858Z,23.52
2018-06-17T07:54:32.957Z,23.39
2018-06-17T07:55:33.089Z,23.39
2018-06-17T07:56:33.179Z,23.19
2018-06-17T07:57:33.309Z,22.99
2018-06-17T07:58:33.410Z,23.01
2018-06-17T07:59:33.514Z,23.02
2018-06-17T08:00:33.617Z,23.09
2018-06-17T08:01:33.714Z,23.02
2018-06-17T08:02:33.819Z,23.01
2018-06-17T08:03:33.922Z,23.14
2018-06-17T08:04:34.033Z,23.27
2018-06-17T08:05:34.129Z,23.26
2018-06-17T08:06:34.253Z,23.05
2018-06-17T08:07:34.367Z,23.40
2018-06-17T08:08:34.475Z,23.52
2018-06-17T08:09:34.581Z,23.68
2018-06-17T08:10:34.681Z,23.80
2018-06-17T08:11:34.782Z,23.83
2018-06-17T08:12:34.884Z,24.01
2018-06-17T08:13:34.989Z,24.07
2018-06-17T08:14:35.095Z,24.10
2018-06-17T08:15:35.194Z,24.02
2018-06-17T08:16:35.297Z,24.22
2018-06-17T08:17:35.397Z,24.26
2018-06-17T08:18:35.501Z,24.34
2018-06-17T08:19:35.605Z,24.38
2018-06-17T08:20:35.707Z,24.24
2018-06-17T08:21:35.810Z,24.39
2018-06-17T08:22:35.909Z,24.45
2018-06-17T08:23:36.008Z,24.53
2018-06-17T08:24:36.111Z,24.54
2018-06-17T08:25:36.214Z,24.52
2018-06-17T08:26:36.324Z,24.64
2018-06-17T08:27:36.422Z,24.71
2018-06-17T08:28:36.528Z,24.71
2018-06-17T08:29:36.625Z,24.64
2018-06-17T08:30:36.726Z,24.67
2018-06-17T08:31:36.828Z,24.79
2018-06-17T08:32:36.932Z,24.91
2018-06-17T08:33:37.038Z,24.75
2018-06-17T08:34:37.146Z,24.88
2018-06-17T08:35:37.246Z,24.77
2018-06-17T08:36:37.346Z,24.97
2018-06-17T08:37:37.451Z,25.06
2018-06-17T08:38:37.554Z,25.02
2018-06-17T08:39:37.657Z,25.00
2018-06-17T08:40:37.760Z,25.00
2018-06-17T08:41:37.863Z,24.82
2018-06-17T08:42:37.964Z,24.79
2018-06-17T08:43:38.070Z,24.75
2018-06-17T08:44:38.171Z,24.80
2018-06-17T08:45:38.276Z,24.69
2018-06-17T08:46:38.379Z,24.64
2018-06-17T08:47:38.484Z,24.61
2018-06-17T08:48:38.588Z,24.57
2018-06-17T08:49:38.691Z,24.38
2018-06-17T08:50:38.799Z,24.31
2018-06-17T08:51:38.903Z,24.24
2018-06-17T08:52:39.004Z,24.20
2018-06-17T08:53:39.103Z,23.97
2018-06-17T08:54:39.204Z,23.64
2018-06-17T08:55:39.308Z,23.61
2018-06-17T08:56:39.413Z,23.77
2018-06-17T08:57:39.543Z,23.90
2018-06-17T08:58:39.642Z,23.89
2018-06-17T08:59:39.746Z,23.95
2018-06-17T09:00:39.854Z,24.12
2018-06-17T09:01:39.953Z,24.10
2018-06-17T09:02:40.058Z,24.14
2018-06-17T09:03:40.159Z,23.92
2018-06-17T09:04:40.264Z,23.98
2018-06-17T09:05:40.370Z,24.00
2018-06-17T09:06:40.475Z,24.16
2018-06-17T09:07:40.568Z,24.34
2018-06-17T09:08:40.668Z,24.16
2018-06-17T09:09:40.769Z,24.27
2018-06-17T09:10:40.876Z,24.24
2018-06-17T09:11:40.978Z,24.35
2018-06-17T09:12:41.083Z,24.41
2018-06-17T09:13:41.187Z,24.31
2018-06-17T09:14:41.286Z,24.23
2018-06-17T09:15:41.393Z,24.41
2018-06-17T09:16:41.492Z,24.54
2018-06-17T09:17:41.595Z,24.80
2018-06-17T09:18:41.719Z,24.98
2018-06-17T09:19:41.812Z,24.94
2018-06-17T09:20:41.914Z,25.20
2018-06-17T09:21:42.019Z,25.13
2018-06-17T09:22:42.121Z,25.02
2018-06-17T09:23:42.217Z,24.73
2018-06-17T09:24:42.319Z,24.77
2018-06-17T09:25:42.427Z,24.90
2018-06-17T09:26:42.522Z,24.91
2018-06-17T09:27:42.624Z,24.95
2018-06-17T09:28:42.728Z,24.88
2018-06-17T09:29:42.829Z,24.80
2018-06-17T09:30:42.938Z,24.79
2018-06-17T09:31:43.074Z,24.85
2018-06-17T09:32:43.143Z,24.77
2018-06-17T09:33:43.241Z,24.85
2018-06-17T09:34:43.352Z,24.73
2018-06-17T09:35:43.455Z,24.83
2018-06-17T09:36:43.560Z,24.63
2018-06-17T09:37:43.666Z,24.64
2018-06-17T09:38:43.767Z,24.71
2018-06-17T09:39:43.874Z,24.82
2018-06-17T09:40:43.977Z,24.61
2018-06-17T09:41:44.079Z,24.71
2018-06-17T09:42:44.191Z,24.59
2018-06-17T09:43:44.291Z,24.54
2018-06-17T09:44:44.391Z,24.50
2018-06-17T09:45:44.501Z,24.67
2018-06-17T09:46:44.616Z,24.75
2018-06-17T09:47:44.703Z,24.69
2018-06-17T09:48:44.808Z,24.76
2018-06-17T09:49:44.921Z,24.82
2018-06-17T09:50:45.020Z,24.91
2018-06-17T09:51:45.115Z,25.00
2018-06-17T09:52:45.231Z,25.06
2018-06-17T09:53:45.327Z,25.09
2018-06-17T09:54:45.450Z,24.98
2018-06-17T09:55:45.559Z,25.15
2018-06-17T09:56:45.649Z,25.13
2018-06-17T09:57:45.750Z,25.27
2018-06-17T09:58:45.860Z,25.15
2018-06-17T09:59:45.965Z,25.06
2018-06-17T10:00:46.062Z,25.22
2018-06-17T10:01:46.215Z,24.88
2018-06-17T10:02:46.348Z,24.90
2018-06-17T10:03:46.340Z,24.50
2018-06-17T10:04:46.461Z,24.57
2018-06-17T10:05:46.567Z,23.79
2018-06-17T10:06:46.669Z,23.67
2018-06-17T10:07:46.786Z,23.87
2018-06-17T10:08:46.905Z,24.31
2018-06-17T10:09:47.002Z,24.52
2018-06-17T10:10:47.107Z,24.59
2018-06-17T10:11:47.207Z,24.61
2018-06-17T10:12:47.326Z,24.82
2018-06-17T10:13:47.474Z,24.94
2018-06-17T10:14:47.613Z,25.06
2018-06-17T10:15:47.716Z,25.17
2018-06-17T10:16:47.813Z,25.37
2018-06-17T10:17:47.941Z,25.39
2018-06-17T10:18:48.063Z,25.32
2018-06-17T10:19:48.156Z,25.34
2018-06-17T10:20:48.245Z,25.32
2018-06-17T10:21:48.358Z,25.27
2018-06-17T10:22:48.528Z,25.22
2018-06-17T10:23:48.535Z,25.17
2018-06-17T10:24:48.643Z,25.00
2018-06-17T10:25:48.734Z,25.05
2018-06-17T10:26:48.974Z,25.20
2018-06-17T10:27:48.989Z,25.17
2018-06-17T10:28:49.090Z,25.16
2018-06-17T10:29:49.226Z,25.01
2018-06-17T10:30:49.337Z,25.20
2018-06-17T10:31:49.433Z,25.32
2018-06-17T10:32:49.617Z,25.38
2018-06-17T10:33:49.731Z,25.47
2018-06-17T10:34:49.865Z,25.59
2018-06-17T10:35:49.934Z,25.62
2018-06-17T10:36:50.033Z,25.69
2018-06-17T10:37:50.160Z,25.68
2018-06-17T10:38:50.264Z,25.27
2018-06-17T10:39:50.372Z,25.01
2018-06-17T10:40:50.483Z,24.98
2018-06-17T10:41:50.614Z,25.09
2018-06-17T10:42:50.711Z,24.98
2018-06-17T10:43:50.828Z,25.01
2018-06-17T10:44:51.060Z,24.94
2018-06-17T10:45:51.035Z,24.95
2018-06-17T10:46:51.137Z,24.97
2018-06-17T10:47:51.242Z,24.90
2018-06-17T10:48:51.425Z,24.64
2018-06-17T10:49:51.476Z,24.63
2018-06-17T10:50:51.578Z,24.57
2018-06-17T10:51:51.677Z,24.71
2018-06-17T10:52:51.829Z,24.80
2018-06-17T10:53:51.921Z,24.88
2018-06-17T10:54:52.027Z,24.88
2018-06-17T10:55:52.230Z,24.90
2018-06-17T10:56:52.247Z,24.94
2018-06-17T10:57:52.349Z,25.02
2018-06-17T10:58:52.468Z,25.17
2018-06-17T10:59:52.569Z,25.12
2018-06-17T11:00:52.678Z,25.02
2018-06-17T11:01:52.783Z,25.13
2018-06-17T11:02:52.889Z,25.28
2018-06-17T11:03:53.006Z,25.31
2018-06-17T11:04:53.140Z,25.35
2018-06-17T11:05:53.250Z,25.34
2018-06-17T11:06:53.350Z,25.42
2018-06-17T11:07:53.438Z,25.34
2018-06-17T11:08:53.557Z,25.49
2018-06-17T11:09:53.659Z,25.38
2018-06-17T11:10:53.774Z,25.25
2018-06-17T11:11:53.865Z,25.31
2018-06-17T11:12:53.977Z,25.02
2018-06-17T11:13:54.102Z,25.25
2018-06-17T11:14:54.215Z,25.42
2018-06-17T11:15:54.325Z,25.34
2018-06-17T11:16:54.434Z,25.17
2018-06-17T11:17:54.537Z,25.30
2018-06-17T11:18:54.628Z,25.15
2018-06-17T11:19:54.729Z,25.27
2018-06-17T11:20:54.845Z,25.38
2018-06-17T11:21:54.951Z,25.52
2018-06-17T11:22:55.047Z,25.53
2018-06-17T11:23:55.144Z,25.57
2018-06-17T11:24:55.247Z,25.64
2018-06-17T11:25:55.352Z,25.75
2018-06-17T11:26:55.460Z,25.89
2018-06-17T11:27:55.560Z,26.02
2018-06-17T11:28:55.665Z,26.18
2018-06-17T11:29:55.766Z,26.47
2018-06-17T11:30:55.863Z,26.54
2018-06-17T11:31:55.965Z,26.65
2018-06-17T11:32:56.069Z,26.52
2018-06-17T11:33:56.173Z,26.57
2018-06-17T11:34:56.273Z,26.58
2018-06-17T11:35:56.379Z,26.47
2018-06-17T11:36:56.489Z,26.49
2018-06-17T11:37:56.598Z,26.46
2018-06-17T11:38:56.776Z,26.47
2018-06-17T11:39:56.842Z,26.32
2018-06-17T11:40:56.918Z,26.29
2018-06-17T11:41:57.033Z,26.35
2018-06-17T11:42:57.137Z,26.36
2018-06-17T11:43:57.244Z,26.32
2018-06-17T11:44:57.354Z,26.43
2018-06-17T11:45:57.468Z,26.29
2018-06-17T11:46:57.605Z,26.32
2018-06-17T11:47:57.716Z,26.49
2018-06-17T11:48:57.817Z,26.52
2018-06-17T11:49:57.926Z,26.68
2018-06-17T11:50:58.089Z,26.73
2018-06-17T11:51:58.133Z,26.84
2018-06-17T11:52:58.237Z,26.95
2018-06-17T11:53:58.337Z,26.98
2018-06-17T11:54:58.444Z,26.99
2018-06-17T11:55:58.557Z,26.76
2018-06-17T11:56:58.674Z,26.69
2018-06-17T11:57:58.780Z,26.72
2018-06-17T11:58:58.890Z,26.64
2018-06-17T11:59:58.991Z,26.36
2018-06-17T12:00:59.117Z,26.11
2018-06-17T12:01:59.234Z,26.27
2018-06-17T12:02:59.317Z,26.37
2018-06-17T12:03:59.421Z,26.46
2018-06-17T12:04:59.523Z,25.74
2018-06-17T12:05:59.626Z,25.83
2018-06-17T12:06:59.721Z,25.87
2018-06-17T12:07:59.847Z,25.99
2018-06-17T12:08:59.953Z,26.09
2018-06-17T12:10:00.073Z,26.20
2018-06-17T12:11:00.170Z,26.31
2018-06-17T12:12:00.277Z,26.52
2018-06-17T12:13:00.384Z,26.55
2018-06-17T12:14:00.492Z,26.72
2018-06-17T12:15:00.600Z,26.80
2018-06-17T12:16:00.701Z,26.81
2018-06-17T12:17:00.820Z,26.74
2018-06-17T12:18:00.906Z,26.81
2018-06-17T12:19:01.033Z,26.83
2018-06-17T12:20:01.146Z,26.64
2018-06-17T12:21:01.244Z,26.52
2018-06-17T12:22:01.373Z,26.61
2018-06-17T12:23:01.477Z,26.69
2018-06-17T12:24:01.579Z,26.74
2018-06-17T12:25:01.690Z,26.98
2018-06-17T12:26:01.787Z,26.86
2018-06-17T12:27:01.896Z,26.86
2018-06-17T12:28:01.987Z,26.86
2018-06-17T12:29:02.090Z,27.04
2018-06-17T12:30:02.201Z,26.65
2018-06-17T12:31:02.305Z,26.54
2018-06-17T12:32:02.406Z,26.46
2018-06-17T12:33:02.508Z,26.47
2018-06-17T12:34:02.617Z,26.72
2018-06-17T12:35:02.717Z,26.91
2018-06-17T12:36:02.813Z,26.89
2018-06-17T12:37:02.919Z,26.91
2018-06-17T12:38:03.020Z,27.06
2018-06-17T12:39:03.127Z,27.09
2018-06-17T12:40:03.230Z,27.28
2018-06-17T12:41:03.336Z,27.48
2018-06-17T12:42:03.442Z,27.51
2018-06-17T12:43:03.548Z,27.58
2018-06-17T12:44:03.655Z,27.61
2018-06-17T12:45:03.762Z,27.77
2018-06-17T12:46:03.866Z,27.28
2018-06-17T12:47:03.980Z,27.42
2018-06-17T12:48:04.079Z,27.38
2018-06-17T12:49:04.244Z,27.38
2018-06-17T12:50:04.293Z,27.47
2018-06-17T12:51:04.398Z,27.42
2018-06-17T12:52:04.507Z,27.43
2018-06-17T12:53:04.615Z,27.41
2018-06-17T12:54:04.736Z,27.13